Electric City, Washington
Current Conditions -  °F | °C
As of 6:53 PM on Friday 21 Nov 2014 (Local Time) from KOMK Reporting Station
Light Snow Light Snow  
Wind Chill: 32°   Ceiling: 300
Heat Index: 32°   Visibility: 1mi
Dew Point: 31°   Wind: 0mph
Humidity: 96%   Direction: NA
Pressure: 29.5"   Gusts: NA
Location:  47.93°N, 119.04°W
Report Text: KOMK 220253Z AUTO 00000KT 1SM -SN BR VV003 00/M01 A2950 RMK AO2 SLP002 P0014 60036 T00001006 58047
Loading
Personal Weather Stations






























Interactive Weather Map New forecast layout! Learn more

10-Day Weather Forecast

Advertisements
Track Severe Weather on mobile